createdAt,value
2022-11-03T00:02:16.644Z,22.54
2022-11-03T00:04:44.542Z,22.53
2022-11-03T00:07:11.978Z,22.60
2022-11-03T00:09:39.376Z,22.61
2022-11-03T00:12:09.805Z,22.61
2022-11-03T00:14:37.634Z,22.57
2022-11-03T00:17:05.399Z,22.56
2022-11-03T00:19:33.639Z,22.44
2022-11-03T00:22:01.873Z,22.40
2022-11-03T00:24:29.795Z,22.40
2022-11-03T00:26:57.277Z,22.49
2022-11-03T00:29:25.542Z,22.47
2022-11-03T00:31:53.551Z,22.36
2022-11-03T00:34:21.250Z,22.26
2022-11-03T00:36:49.456Z,22.32
2022-11-03T00:39:17.317Z,22.13
2022-11-03T00:41:45.279Z,22.11
2022-11-03T00:44:13.795Z,22.19
2022-11-03T00:46:41.430Z,21.94
2022-11-03T00:49:09.328Z,21.97
2022-11-03T00:51:37.592Z,22.02
2022-11-03T00:54:07.792Z,21.87
2022-11-03T00:56:38.339Z,21.94
2022-11-03T00:59:12.016Z,21.84
2022-11-03T01:01:46.832Z,21.99
2022-11-03T01:04:35.823Z,21.95
2022-11-03T01:07:05.849Z,21.97
2022-11-03T01:09:41.791Z,21.89
2022-11-03T01:12:12.797Z,21.74
2022-11-03T01:14:50.225Z,21.83
2022-11-03T01:17:20.449Z,21.93
2022-11-03T01:19:50.301Z,21.99
2022-11-03T01:22:19.036Z,21.97
2022-11-03T01:24:48.024Z,21.99
2022-11-03T01:27:18.800Z,22.01
2022-11-03T01:29:47.545Z,22.07
2022-11-03T01:32:15.762Z,22.01
2022-11-03T01:34:43.729Z,21.97
2022-11-03T01:37:12.267Z,22.03
2022-11-03T01:39:41.759Z,21.95
2022-11-03T01:42:14.866Z,21.90
2022-11-03T01:44:49.490Z,21.84
2022-11-03T01:47:25.989Z,21.92
2022-11-03T01:50:00.211Z,22.08
2022-11-03T01:52:37.475Z,21.98
2022-11-03T01:55:10.976Z,21.77
2022-11-03T01:57:45.809Z,21.97
2022-11-03T02:00:14.481Z,21.93
2022-11-03T02:02:43.499Z,21.89
2022-11-03T02:05:15.732Z,21.90
2022-11-03T02:08:02.524Z,21.89
2022-11-03T02:10:30.892Z,21.92
2022-11-03T02:12:59.453Z,21.86
2022-11-03T02:15:28.422Z,21.71
2022-11-03T02:17:58.448Z,21.77
2022-11-03T02:20:30.448Z,21.82
2022-11-03T02:23:23.162Z,21.85
2022-11-03T02:25:59.736Z,21.71
2022-11-03T02:28:33.123Z,21.85
2022-11-03T02:31:30.801Z,21.81
2022-11-03T02:34:27.438Z,21.69
2022-11-03T02:37:08.903Z,21.77
2022-11-03T02:39:55.353Z,21.76
2022-11-03T02:42:26.372Z,21.78
2022-11-03T02:44:59.140Z,21.65
2022-11-03T02:47:31.516Z,21.78
2022-11-03T02:49:59.871Z,21.81
2022-11-03T02:52:47.730Z,21.66
2022-11-03T02:55:40.279Z,21.58
2022-11-03T02:58:22.594Z,21.68
2022-11-03T03:01:01.488Z,21.53
2022-11-03T03:03:35.397Z,21.65
2022-11-03T03:06:08.506Z,21.66
2022-11-03T03:08:42.981Z,21.58
2022-11-03T03:11:14.354Z,21.55
2022-11-03T03:13:45.058Z,21.60
2022-11-03T03:16:17.718Z,21.50
2022-11-03T03:18:57.024Z,21.50
2022-11-03T03:21:30.003Z,21.54
2022-11-03T03:24:15.726Z,21.43
2022-11-03T03:26:49.969Z,21.51
2022-11-03T03:29:27.491Z,21.46
2022-11-03T03:32:04.397Z,21.45
2022-11-03T03:34:36.051Z,21.53
2022-11-03T03:37:07.626Z,21.48
2022-11-03T03:39:39.150Z,21.51
2022-11-03T03:42:12.941Z,21.50
2022-11-03T03:44:42.951Z,21.46
2022-11-03T03:47:18.375Z,21.50
2022-11-03T03:49:45.972Z,21.51
2022-11-03T03:52:13.802Z,21.46
2022-11-03T03:54:41.742Z,21.51
2022-11-03T03:57:16.595Z,21.50
2022-11-03T03:59:45.554Z,21.54
2022-11-03T04:02:14.366Z,21.45
2022-11-03T04:04:42.034Z,21.46
2022-11-03T04:07:28.653Z,21.39
2022-11-03T04:09:57.839Z,21.43
2022-11-03T04:12:43.914Z,21.45
2022-11-03T04:15:33.391Z,21.38
2022-11-03T04:18:19.460Z,21.38
2022-11-03T04:21:05.765Z,21.32
2022-11-03T04:23:33.576Z,21.35
2022-11-03T04:26:02.011Z,21.44
2022-11-03T04:28:30.592Z,21.54
2022-11-03T04:31:00.146Z,21.35
2022-11-03T04:33:29.959Z,21.36
2022-11-03T04:36:00.857Z,21.43
2022-11-03T04:38:30.627Z,21.39
2022-11-03T04:40:59.946Z,21.24
2022-11-03T04:43:34.678Z,21.35
2022-11-03T04:46:05.639Z,21.38
2022-11-03T04:48:34.658Z,21.21
2022-11-03T04:51:11.716Z,21.18
2022-11-03T04:53:44.783Z,21.24
2022-11-03T04:56:20.145Z,21.22
2022-11-03T04:58:49.071Z,21.25
2022-11-03T05:01:23.947Z,21.17
2022-11-03T05:03:54.587Z,21.08
2022-11-03T05:06:24.279Z,21.22
2022-11-03T05:09:03.416Z,21.18
2022-11-03T05:11:44.090Z,21.09
2022-11-03T05:14:20.300Z,21.28
2022-11-03T05:16:49.101Z,21.21
2022-11-03T05:19:25.661Z,21.24
2022-11-03T05:21:55.298Z,21.24
2022-11-03T05:24:26.244Z,21.11
2022-11-03T05:26:56.344Z,21.25
2022-11-03T05:29:45.728Z,21.24
2022-11-03T05:32:17.040Z,21.13
2022-11-03T05:34:48.493Z,21.20
2022-11-03T05:37:47.837Z,21.11
2022-11-03T05:40:26.370Z,21.17
2022-11-03T05:43:01.208Z,21.18
2022-11-03T05:45:38.380Z,21.20
2022-11-03T05:48:22.871Z,21.10
2022-11-03T05:50:50.248Z,21.15
2022-11-03T05:53:23.692Z,21.16
2022-11-03T05:55:51.269Z,21.15
2022-11-03T05:58:36.355Z,21.04
2022-11-03T06:01:26.728Z,21.09
2022-11-03T06:03:54.262Z,21.15
2022-11-03T06:06:35.332Z,21.14
2022-11-03T06:09:04.402Z,21.22
2022-11-03T06:11:39.965Z,21.26
2022-11-03T06:14:24.663Z,21.26
2022-11-03T06:17:02.270Z,21.26
2022-11-03T06:19:39.400Z,21.20
2022-11-03T06:22:15.668Z,21.14
2022-11-03T06:24:43.900Z,21.25
2022-11-03T06:27:26.921Z,21.25
2022-11-03T06:29:59.766Z,21.17
2022-11-03T06:32:28.631Z,21.30
2022-11-03T06:34:59.277Z,21.23
2022-11-03T06:37:35.374Z,21.32
2022-11-03T06:40:28.041Z,21.21
2022-11-03T06:42:58.802Z,21.34
2022-11-03T06:45:31.170Z,21.22
2022-11-03T06:47:58.437Z,21.24
2022-11-03T06:50:27.374Z,21.27
2022-11-03T06:52:59.371Z,21.28
2022-11-03T06:55:31.772Z,21.38
2022-11-03T06:58:04.951Z,21.34
2022-11-03T07:00:34.648Z,21.26
2022-11-03T07:03:12.875Z,21.29
2022-11-03T07:05:40.592Z,21.42
2022-11-03T07:08:25.547Z,21.42
2022-11-03T07:11:21.104Z,21.39
2022-11-03T07:13:50.521Z,21.56
2022-11-03T07:16:35.693Z,21.58
2022-11-03T07:19:06.471Z,21.62
2022-11-03T07:21:33.445Z,21.67
2022-11-03T07:24:02.441Z,21.64
2022-11-03T07:26:29.575Z,21.62
2022-11-03T07:28:59.380Z,21.68
2022-11-03T07:31:29.500Z,21.64
2022-11-03T07:34:02.216Z,21.69
2022-11-03T07:36:34.966Z,21.53
2022-11-03T07:39:03.273Z,21.74
2022-11-03T07:41:34.570Z,21.70
2022-11-03T07:44:04.869Z,21.69
2022-11-03T07:46:32.122Z,21.78
2022-11-03T07:49:02.989Z,21.65
2022-11-03T07:51:35.324Z,21.87
2022-11-03T07:54:08.651Z,21.81
2022-11-03T07:56:40.056Z,21.79
2022-11-03T07:59:11.672Z,21.94
2022-11-03T08:01:48.206Z,21.84
2022-11-03T08:04:34.132Z,21.89
2022-11-03T08:07:03.797Z,21.95
2022-11-03T08:09:33.322Z,22.05
2022-11-03T08:12:01.082Z,22.10
2022-11-03T08:14:28.284Z,22.00
2022-11-03T08:16:55.498Z,22.16
2022-11-03T08:19:22.605Z,22.07
2022-11-03T08:21:49.742Z,22.31
2022-11-03T08:24:16.870Z,22.23
2022-11-03T08:26:44.081Z,22.27
2022-11-03T08:29:11.240Z,22.24
2022-11-03T08:31:38.494Z,22.43
2022-11-03T08:34:07.624Z,22.52
2022-11-03T08:36:37.825Z,22.71
2022-11-03T08:39:07.762Z,23.21
2022-11-03T08:41:35.612Z,23.46
2022-11-03T08:44:04.599Z,23.82
2022-11-03T08:46:33.067Z,23.92
2022-11-03T08:49:01.010Z,23.82
2022-11-03T08:51:28.735Z,23.86
2022-11-03T08:54:10.015Z,23.61
2022-11-03T08:56:40.267Z,23.66
2022-11-03T08:59:10.344Z,23.77
2022-11-03T09:01:40.534Z,23.65
2022-11-03T09:04:16.289Z,23.55
2022-11-03T09:06:46.622Z,23.59
2022-11-03T09:12:06.069Z,23.91
2022-11-03T09:14:33.279Z,24.15
2022-11-03T09:17:00.457Z,24.60
2022-11-03T09:19:30.776Z,24.82
2022-11-03T09:22:00.647Z,25.00
2022-11-03T09:24:27.961Z,25.15
2022-11-03T09:27:02.111Z,25.18
2022-11-03T09:29:36.312Z,25.29
2022-11-03T09:32:12.922Z,25.37
2022-11-03T09:34:49.210Z,25.46
2022-11-03T09:37:16.826Z,25.24
2022-11-03T09:39:44.475Z,24.94
2022-11-03T09:42:12.980Z,25.19
2022-11-03T09:44:40.395Z,25.18
2022-11-03T09:47:20.121Z,24.82
2022-11-03T09:49:47.240Z,24.70
2022-11-03T09:52:20.550Z,24.72
2022-11-03T09:55:00.291Z,24.82
2022-11-03T09:57:32.957Z,24.88
2022-11-03T10:00:31.862Z,24.85
2022-11-03T10:03:05.587Z,24.90
2022-11-03T10:05:56.737Z,24.96
2022-11-03T10:08:32.933Z,25.03
2022-11-03T10:11:20.456Z,24.96
2022-11-03T10:13:54.040Z,25.30
2022-11-03T10:16:25.509Z,25.55
2022-11-03T10:18:54.225Z,25.94
2022-11-03T10:21:30.503Z,26.41
2022-11-03T10:23:57.940Z,26.67
2022-11-03T10:26:27.653Z,26.52
2022-11-03T10:29:02.545Z,26.30
2022-11-03T10:31:39.313Z,26.47
2022-11-03T10:34:39.688Z,26.47
2022-11-03T10:37:23.102Z,26.89
2022-11-03T10:39:53.018Z,27.34
2022-11-03T10:42:28.154Z,27.55
2022-11-03T10:45:22.130Z,27.89
2022-11-03T10:48:07.173Z,28.05
2022-11-03T10:50:34.601Z,28.01
2022-11-03T10:53:06.565Z,28.25
2022-11-03T10:55:34.386Z,28.24
2022-11-03T10:58:24.856Z,28.14
2022-11-03T11:01:03.042Z,27.63
2022-11-03T11:03:31.036Z,27.10
2022-11-03T11:05:58.513Z,27.09
2022-11-03T11:08:26.077Z,26.60
2022-11-03T11:10:54.652Z,26.40
2022-11-03T11:13:28.891Z,26.32
2022-11-03T11:18:46.432Z,27.03
2022-11-03T11:21:18.029Z,27.13
2022-11-03T11:23:47.467Z,28.01
2022-11-03T11:26:33.896Z,27.30
2022-11-03T11:29:10.184Z,27.37
2022-11-03T11:31:45.167Z,27.79
2022-11-03T11:34:20.581Z,28.15
2022-11-03T11:37:08.001Z,27.51
2022-11-03T11:39:44.983Z,27.75
2022-11-03T11:42:27.932Z,27.53
2022-11-03T11:45:03.650Z,27.97
2022-11-03T11:47:51.182Z,28.24
2022-11-03T11:50:57.434Z,27.36
2022-11-03T11:53:31.779Z,26.39
2022-11-03T11:56:04.700Z,26.84
2022-11-03T11:58:51.237Z,26.72
2022-11-03T12:01:45.600Z,26.47
2022-11-03T12:04:31.543Z,26.84
2022-11-03T12:07:02.748Z,26.51
2022-11-03T12:09:33.837Z,26.61
2022-11-03T12:12:08.533Z,25.70
2022-11-03T12:14:41.790Z,25.82
2022-11-03T12:17:26.081Z,26.22
2022-11-03T12:19:59.303Z,25.84
2022-11-03T12:22:28.241Z,25.77
2022-11-03T12:25:11.079Z,25.31
2022-11-03T12:27:44.091Z,25.14
2022-11-03T12:30:19.462Z,24.97
2022-11-03T12:32:49.920Z,25.67
2022-11-03T12:35:19.724Z,25.46
2022-11-03T12:37:49.179Z,25.98
2022-11-03T12:40:16.579Z,26.09
2022-11-03T12:42:46.810Z,25.81
2022-11-03T12:45:17.068Z,25.78
2022-11-03T12:47:46.693Z,26.15
2022-11-03T12:50:17.677Z,26.05
2022-11-03T12:52:44.756Z,25.81
2022-11-03T12:55:12.989Z,25.19
2022-11-03T12:57:40.982Z,25.47
2022-11-03T13:00:10.533Z,25.08
2022-11-03T13:02:46.096Z,25.65
2022-11-03T13:05:17.090Z,26.02
2022-11-03T13:07:46.463Z,25.85
2022-11-03T13:10:16.906Z,25.73
2022-11-03T13:12:47.111Z,25.68
2022-11-03T13:15:16.636Z,25.46
2022-11-03T13:18:11.769Z,25.44
2022-11-03T13:20:39.330Z,25.58
2022-11-03T13:23:09.797Z,25.59
2022-11-03T13:25:40.240Z,25.98
2022-11-03T13:28:16.245Z,25.94
2022-11-03T13:30:46.255Z,25.72
2022-11-03T13:33:19.589Z,25.98
2022-11-03T13:35:57.751Z,26.05
2022-11-03T13:38:29.697Z,26.19
2022-11-03T13:41:13.952Z,26.22
2022-11-03T13:43:46.649Z,25.88
2022-11-03T13:49:51.095Z,26.35
2022-11-03T13:51:49.633Z,26.44
2022-11-03T13:59:58.973Z,26.57
2022-11-03T14:06:04.125Z,26.41
2022-11-03T14:08:38.911Z,26.40
2022-11-03T14:11:26.044Z,26.44
2022-11-03T14:13:59.489Z,26.50
2022-11-03T14:16:26.772Z,26.56
2022-11-03T14:18:53.947Z,26.41
2022-11-03T14:21:21.196Z,26.51
2022-11-03T14:23:48.262Z,26.40
2022-11-03T14:26:24.158Z,26.28
2022-11-03T14:29:03.321Z,26.53
2022-11-03T14:31:30.669Z,26.17
2022-11-03T14:33:57.933Z,26.29
2022-11-03T14:36:28.418Z,26.35
2022-11-03T14:38:55.875Z,26.20
2022-11-03T14:41:41.688Z,26.27
2022-11-03T14:44:14.061Z,26.35
2022-11-03T14:46:41.345Z,26.32
2022-11-03T14:49:09.414Z,26.14
2022-11-03T14:51:36.815Z,26.29
2022-11-03T14:54:08.136Z,26.30
2022-11-03T14:56:37.909Z,26.22
2022-11-03T14:59:11.016Z,26.21
2022-11-03T15:01:44.202Z,26.21
2022-11-03T15:04:14.126Z,26.18
2022-11-03T15:06:42.029Z,26.25
2022-11-03T15:11:38.541Z,26.21
2022-11-03T15:14:07.210Z,26.25
2022-11-03T15:16:39.815Z,25.58
2022-11-03T15:19:08.057Z,25.98
2022-11-03T15:21:35.397Z,26.13
2022-11-03T15:26:50.980Z,26.04
2022-11-03T15:29:18.010Z,25.98
2022-11-03T15:31:48.139Z,25.97
2022-11-03T15:34:16.877Z,26.05
2022-11-03T15:36:44.066Z,26.06
2022-11-03T15:39:16.654Z,25.97
2022-11-03T15:41:46.978Z,26.01
2022-11-03T15:44:15.013Z,26.21
2022-11-03T15:46:42.646Z,26.18
2022-11-03T15:49:12.366Z,26.22
2022-11-03T15:51:42.072Z,26.23
2022-11-03T15:54:15.749Z,26.21
2022-11-03T15:56:50.805Z,25.66
2022-11-03T15:59:21.592Z,25.63
2022-11-03T16:01:59.488Z,25.74
2022-11-03T16:04:41.959Z,25.57
2022-11-03T16:07:12.251Z,25.59
2022-11-03T16:09:44.927Z,25.22
2022-11-03T16:12:16.283Z,25.24
2022-11-03T16:14:54.399Z,25.33
2022-11-03T16:17:28.938Z,25.24
2022-11-03T16:19:57.771Z,25.50
2022-11-03T16:22:39.031Z,25.59
2022-11-03T16:25:12.098Z,25.55
2022-11-03T16:27:45.521Z,25.42
2022-11-03T16:30:16.846Z,25.26
2022-11-03T16:32:53.165Z,25.26
2022-11-03T16:35:21.448Z,25.26
2022-11-03T16:37:48.848Z,24.78
2022-11-03T16:40:19.928Z,25.08
2022-11-03T16:42:48.191Z,25.06
2022-11-03T16:45:19.379Z,24.81
2022-11-03T16:47:48.004Z,24.30
2022-11-03T16:50:21.524Z,24.90
2022-11-03T16:52:51.139Z,24.35
2022-11-03T16:55:19.522Z,24.78
2022-11-03T16:57:49.976Z,24.83
2022-11-03T17:00:19.691Z,24.79
2022-11-03T17:02:48.954Z,24.72
2022-11-03T17:05:19.001Z,24.78
2022-11-03T17:07:52.932Z,24.93
2022-11-03T17:10:21.568Z,24.83
2022-11-03T17:12:51.504Z,24.77
2022-11-03T17:15:18.897Z,24.65
2022-11-03T17:17:49.843Z,24.71
2022-11-03T17:20:17.962Z,24.59
2022-11-03T17:22:51.673Z,24.43
2022-11-03T17:25:19.182Z,24.47
2022-11-03T17:27:59.361Z,24.58
2022-11-03T17:30:29.285Z,24.75
2022-11-03T17:33:00.913Z,24.56
2022-11-03T17:35:43.004Z,24.42
2022-11-03T17:38:19.783Z,24.45
2022-11-03T17:40:48.280Z,24.64
2022-11-03T17:43:24.215Z,24.63
2022-11-03T17:45:51.630Z,24.37
2022-11-03T17:48:18.652Z,24.43
2022-11-03T17:50:49.733Z,23.97
2022-11-03T17:53:24.547Z,24.30
2022-11-03T17:56:23.414Z,24.18
2022-11-03T17:58:46.242Z,24.40
2022-11-03T18:01:21.962Z,24.36
2022-11-03T18:03:49.277Z,24.48
2022-11-03T18:06:19.625Z,23.93
2022-11-03T18:08:50.648Z,24.18
2022-11-03T18:11:47.490Z,23.55
2022-11-03T18:14:22.851Z,23.81
2022-11-03T18:16:54.098Z,24.10
2022-11-03T18:19:31.510Z,23.96
2022-11-03T18:21:59.425Z,24.00
2022-11-03T18:24:30.178Z,24.12
2022-11-03T18:26:57.905Z,24.10
2022-11-03T18:29:25.575Z,24.00
2022-11-03T18:31:55.269Z,24.01
2022-11-03T18:34:26.804Z,24.27
2022-11-03T18:36:55.712Z,24.14
2022-11-03T18:39:28.604Z,24.33
2022-11-03T18:41:56.443Z,24.34
2022-11-03T18:44:31.569Z,24.36
2022-11-03T18:47:13.535Z,24.34
2022-11-03T18:49:55.174Z,23.98
2022-11-03T18:52:26.732Z,24.17
2022-11-03T18:54:59.299Z,24.23
2022-11-03T18:57:28.274Z,24.25
2022-11-03T19:00:01.168Z,24.13
2022-11-03T19:02:29.211Z,23.94
2022-11-03T19:04:58.216Z,23.89
2022-11-03T19:07:49.356Z,23.93
2022-11-03T19:10:34.843Z,23.59
2022-11-03T19:13:03.655Z,23.88
2022-11-03T19:15:35.672Z,23.79
2022-11-03T19:18:06.147Z,23.01
2022-11-03T19:20:34.234Z,23.88
2022-11-03T19:23:05.213Z,23.84
2022-11-03T19:25:38.873Z,23.81
2022-11-03T19:28:06.657Z,23.73
2022-11-03T19:30:36.306Z,23.84
2022-11-03T19:33:12.465Z,23.81
2022-11-03T19:35:40.996Z,23.66
2022-11-03T19:38:18.786Z,23.53
2022-11-03T19:41:07.194Z,23.79
2022-11-03T19:43:36.914Z,23.39
2022-11-03T19:46:05.579Z,23.52
2022-11-03T19:48:36.768Z,23.16
2022-11-03T19:51:08.981Z,23.54
2022-11-03T19:53:37.742Z,23.44
2022-11-03T19:56:06.003Z,23.49
2022-11-03T19:58:36.500Z,23.34
2022-11-03T20:01:08.636Z,23.53
2022-11-03T20:03:37.130Z,23.77
2022-11-03T20:06:06.483Z,23.73
2022-11-03T20:08:34.678Z,23.52
2022-11-03T20:11:02.311Z,23.65
2022-11-03T20:13:41.441Z,23.77
2022-11-03T20:16:19.503Z,23.88
2022-11-03T20:18:49.217Z,23.91
2022-11-03T20:21:18.419Z,23.73
2022-11-03T20:23:48.785Z,23.78
2022-11-03T20:26:25.394Z,23.50
2022-11-03T20:28:56.899Z,23.56
2022-11-03T20:31:24.875Z,23.53
2022-11-03T20:33:55.539Z,23.66
2022-11-03T20:36:23.139Z,23.67
2022-11-03T20:38:59.328Z,23.62
2022-11-03T20:41:30.602Z,23.58
2022-11-03T20:43:59.436Z,23.70
2022-11-03T20:46:34.981Z,23.77
2022-11-03T20:49:10.223Z,23.54
2022-11-03T20:51:45.540Z,23.38
2022-11-03T20:54:21.209Z,23.61
2022-11-03T20:56:48.666Z,23.52
2022-11-03T20:59:18.245Z,23.54
2022-11-03T21:01:49.509Z,23.69
2022-11-03T21:04:19.984Z,23.76
2022-11-03T21:06:47.938Z,23.70
2022-11-03T21:09:21.398Z,23.73
2022-11-03T21:11:48.805Z,23.67
2022-11-03T21:14:26.272Z,23.36
2022-11-03T21:17:14.952Z,23.58
2022-11-03T21:20:02.367Z,23.65
2022-11-03T21:22:55.662Z,23.76
2022-11-03T21:25:25.350Z,23.62
2022-11-03T21:27:56.498Z,23.81
2022-11-03T21:30:23.942Z,23.70
2022-11-03T21:33:14.167Z,23.77
2022-11-03T21:35:47.773Z,23.85
2022-11-03T21:41:52.061Z,23.57
2022-11-03T21:44:33.614Z,23.82
2022-11-03T21:47:02.738Z,23.70
2022-11-03T21:49:44.796Z,23.72
2022-11-03T21:52:32.276Z,23.58
2022-11-03T21:55:03.335Z,23.68
2022-11-03T21:57:31.490Z,23.74
2022-11-03T21:59:59.252Z,23.58
2022-11-03T22:02:30.306Z,23.64
2022-11-03T22:04:58.639Z,23.77
2022-11-03T22:07:25.846Z,23.41
2022-11-03T22:09:53.094Z,23.54
2022-11-03T22:12:20.787Z,23.67
2022-11-03T22:15:09.240Z,23.62
2022-11-03T22:17:36.803Z,23.66
2022-11-03T22:20:23.065Z,23.87
2022-11-03T22:23:08.821Z,23.62
2022-11-03T22:25:54.538Z,23.74
2022-11-03T22:28:26.044Z,23.75
2022-11-03T22:31:16.059Z,23.81
2022-11-03T22:34:05.213Z,23.72
2022-11-03T22:36:33.950Z,23.90
2022-11-03T22:39:19.909Z,23.63
2022-11-03T22:42:06.963Z,23.77
2022-11-03T22:44:54.833Z,23.54
2022-11-03T22:47:24.131Z,23.59
2022-11-03T22:49:51.702Z,23.76
2022-11-03T22:52:20.119Z,23.78
2022-11-03T22:54:47.320Z,23.85
2022-11-03T22:57:14.671Z,23.38
2022-11-03T22:59:41.927Z,23.53
2022-11-03T23:02:11.597Z,23.53
2022-11-03T23:04:41.189Z,23.60
2022-11-03T23:07:08.535Z,23.53
2022-11-03T23:09:35.830Z,23.42
2022-11-03T23:12:03.787Z,23.19
2022-11-03T23:14:50.857Z,23.39
2022-11-03T23:17:18.177Z,23.17
2022-11-03T23:20:04.674Z,23.29
2022-11-03T23:22:32.568Z,23.37
2022-11-03T23:25:01.199Z,22.94
2022-11-03T23:27:30.516Z,23.27
2022-11-03T23:30:00.855Z,23.22
2022-11-03T23:32:29.382Z,23.26
2022-11-03T23:34:56.509Z,23.09
2022-11-03T23:37:23.662Z,22.66
2022-11-03T23:39:50.782Z,23.11
2022-11-03T23:42:18.500Z,22.88
2022-11-03T23:45:04.794Z,23.04
2022-11-03T23:47:53.530Z,23.04
2022-11-03T23:50:21.077Z,22.86
2022-11-03T23:52:48.274Z,22.75
2022-11-03T23:55:15.436Z,22.74
2022-11-03T23:58:01.339Z,22.69
